sensor_id;sensor_type;location;lat;lon;timestamp;temperature;humidity
11511;DHT22;5812;48.864;9.190;2022-08-03T00:01:35;19.70;1.00
11511;DHT22;5812;48.864;9.190;2022-08-03T00:04:02;19.70;1.00
11511;DHT22;5812;48.864;9.190;2022-08-03T00:06:27;19.70;1.00
11511;DHT22;5812;48.864;9.190;2022-08-03T00:08:53;19.60;26.30
11511;DHT22;5812;48.864;9.190;2022-08-03T00:11:19;19.70;1.00
11511;DHT22;5812;48.864;9.190;2022-08-03T00:13:45;19.70;1.00
11511;DHT22;5812;48.864;9.190;2022-08-03T00:16:11;19.60;1.00
11511;DHT22;5812;48.864;9.190;2022-08-03T00:18:37;19.70;1.00
11511;DHT22;5812;48.864;9.190;2022-08-03T00:21:04;19.70;1.00
11511;DHT22;5812;48.864;9.190;2022-08-03T00:23:29;19.50;1.00
11511;DHT22;5812;48.864;9.190;2022-08-03T00:25:55;19.40;1.00
11511;DHT22;5812;48.864;9.190;2022-08-03T00:28:21;19.30;47.50
11511;DHT22;5812;48.864;9.190;2022-08-03T00:30:47;19.20;94.70
11511;DHT22;5812;48.864;9.190;2022-08-03T00:33:13;19.20;99.90
11511;DHT22;5812;48.864;9.190;2022-08-03T00:35:38;19.10;99.90
11511;DHT22;5812;48.864;9.190;2022-08-03T00:38:04;19.10;99.90
11511;DHT22;5812;48.864;9.190;2022-08-03T00:40:30;19.10;99.90
11511;DHT22;5812;48.864;9.190;2022-08-03T00:42:59;19.00;99.90
11511;DHT22;5812;48.864;9.190;2022-08-03T00:45:32;18.90;99.90
11511;DHT22;5812;48.864;9.190;2022-08-03T00:47:59;18.90;99.90
11511;DHT22;5812;48.864;9.190;2022-08-03T00:50:26;18.90;99.90
11511;DHT22;5812;48.864;9.190;2022-08-03T00:52:57;19.00;99.90
11511;DHT22;5812;48.864;9.190;2022-08-03T00:55:24;18.90;99.90
11511;DHT22;5812;48.864;9.190;2022-08-03T00:57:50;18.80;99.90
11511;DHT22;5812;48.864;9.190;2022-08-03T01:00:19;18.80;99.90
11511;DHT22;5812;48.864;9.190;2022-08-03T01:02:45;18.80;99.90
11511;DHT22;5812;48.864;9.190;2022-08-03T01:05:12;18.70;99.90
11511;DHT22;5812;48.864;9.190;2022-08-03T01:12:58;18.80;99.90
11511;DHT22;5812;48.864;9.190;2022-08-03T01:18:01;18.80;99.90
11511;DHT22;5812;48.864;9.190;2022-08-03T01:20:32;18.80;99.90
11511;DHT22;5812;48.864;9.190;2022-08-03T01:23:23;18.70;99.90
11511;DHT22;5812;48.864;9.190;2022-08-03T01:31:03;18.70;99.90
11511;DHT22;5812;48.864;9.190;2022-08-03T01:33:39;18.60;99.90
11511;DHT22;5812;48.864;9.190;2022-08-03T01:36:10;18.50;99.90
11511;DHT22;5812;48.864;9.190;2022-08-03T01:38:43;18.50;99.90
11511;DHT22;5812;48.864;9.190;2022-08-03T01:41:38;18.50;99.90
11511;DHT22;5812;48.864;9.190;2022-08-03T01:44:07;18.60;99.90
11511;DHT22;5812;48.864;9.190;2022-08-03T01:46:34;18.60;99.90
11511;DHT22;5812;48.864;9.190;2022-08-03T01:49:02;18.40;99.90
11511;DHT22;5812;48.864;9.190;2022-08-03T01:51:31;18.40;99.90
11511;DHT22;5812;48.864;9.190;2022-08-03T01:53:57;18.30;99.90
11511;DHT22;5812;48.864;9.190;2022-08-03T01:56:25;18.30;99.90
11511;DHT22;5812;48.864;9.190;2022-08-03T01:58:53;18.30;99.90
11511;DHT22;5812;48.864;9.190;2022-08-03T02:01:21;18.20;99.90
11511;DHT22;5812;48.864;9.190;2022-08-03T02:03:49;18.20;99.90
11511;DHT22;5812;48.864;9.190;2022-08-03T02:06:16;18.20;99.90
11511;DHT22;5812;48.864;9.190;2022-08-03T02:08:44;18.20;99.90
11511;DHT22;5812;48.864;9.190;2022-08-03T02:11:11;18.20;99.90
11511;DHT22;5812;48.864;9.190;2022-08-03T02:13:37;18.10;99.90
11511;DHT22;5812;48.864;9.190;2022-08-03T02:16:04;18.10;99.90
11511;DHT22;5812;48.864;9.190;2022-08-03T02:18:31;18.20;99.90
11511;DHT22;5812;48.864;9.190;2022-08-03T02:21:00;18.20;99.90
11511;DHT22;5812;48.864;9.190;2022-08-03T02:23:26;18.10;1.00
11511;DHT22;5812;48.864;9.190;2022-08-03T02:25:56;18.00;1.00
11511;DHT22;5812;48.864;9.190;2022-08-03T02:28:28;18.00;1.00
11511;DHT22;5812;48.864;9.190;2022-08-03T02:30:55;17.90;1.00
11511;DHT22;5812;48.864;9.190;2022-08-03T02:33:40;17.90;1.00
11511;DHT22;5812;48.864;9.190;2022-08-03T02:36:07;17.90;1.00
11511;DHT22;5812;48.864;9.190;2022-08-03T02:38:37;17.90;1.00
11511;DHT22;5812;48.864;9.190;2022-08-03T02:41:12;18.00;1.00
11511;DHT22;5812;48.864;9.190;2022-08-03T02:43:39;18.10;1.00
11511;DHT22;5812;48.864;9.190;2022-08-03T02:46:06;18.00;1.00
11511;DHT22;5812;48.864;9.190;2022-08-03T02:48:36;17.90;1.00
11511;DHT22;5812;48.864;9.190;2022-08-03T02:51:03;17.90;1.00
11511;DHT22;5812;48.864;9.190;2022-08-03T02:53:29;17.90;1.00
11511;DHT22;5812;48.864;9.190;2022-08-03T02:55:57;17.90;1.00
11511;DHT22;5812;48.864;9.190;2022-08-03T02:58:24;17.90;1.00
11511;DHT22;5812;48.864;9.190;2022-08-03T03:00:51;17.90;1.00
11511;DHT22;5812;48.864;9.190;2022-08-03T03:03:18;18.00;1.00
11511;DHT22;5812;48.864;9.190;2022-08-03T03:05:45;18.00;1.00
11511;DHT22;5812;48.864;9.190;2022-08-03T03:08:13;17.90;1.00
11511;DHT22;5812;48.864;9.190;2022-08-03T03:10:40;17.90;1.00
11511;DHT22;5812;48.864;9.190;2022-08-03T03:13:06;17.90;1.00
11511;DHT22;5812;48.864;9.190;2022-08-03T03:15:34;18.00;1.00
11511;DHT22;5812;48.864;9.190;2022-08-03T03:18:02;18.00;1.00
11511;DHT22;5812;48.864;9.190;2022-08-03T03:20:28;17.90;1.00
11511;DHT22;5812;48.864;9.190;2022-08-03T03:22:55;17.90;1.00
11511;DHT22;5812;48.864;9.190;2022-08-03T03:25:20;17.90;1.00
11511;DHT22;5812;48.864;9.190;2022-08-03T03:27:46;18.10;1.00
11511;DHT22;5812;48.864;9.190;2022-08-03T03:30:13;18.20;1.00
11511;DHT22;5812;48.864;9.190;2022-08-03T03:32:39;18.10;1.00
11511;DHT22;5812;48.864;9.190;2022-08-03T03:35:06;18.10;1.00
11511;DHT22;5812;48.864;9.190;2022-08-03T03:37:32;18.10;1.00
11511;DHT22;5812;48.864;9.190;2022-08-03T03:39:58;18.10;1.00
11511;DHT22;5812;48.864;9.190;2022-08-03T03:42:24;18.10;1.00
11511;DHT22;5812;48.864;9.190;2022-08-03T03:44:50;18.00;1.00
11511;DHT22;5812;48.864;9.190;2022-08-03T03:47:16;18.10;1.00
11511;DHT22;5812;48.864;9.190;2022-08-03T03:49:42;18.10;1.00
11511;DHT22;5812;48.864;9.190;2022-08-03T03:52:07;18.00;1.00
11511;DHT22;5812;48.864;9.190;2022-08-03T03:54:44;17.90;1.00
11511;DHT22;5812;48.864;9.190;2022-08-03T03:57:10;17.90;1.00
11511;DHT22;5812;48.864;9.190;2022-08-03T03:59:40;18.00;1.00
11511;DHT22;5812;48.864;9.190;2022-08-03T04:02:06;17.90;1.00
11511;DHT22;5812;48.864;9.190;2022-08-03T04:04:33;17.80;1.00
11511;DHT22;5812;48.864;9.190;2022-08-03T04:07:18;17.80;1.00
11511;DHT22;5812;48.864;9.190;2022-08-03T04:10:06;17.80;1.00
11511;DHT22;5812;48.864;9.190;2022-08-03T04:12:55;18.10;1.00
11511;DHT22;5812;48.864;9.190;2022-08-03T04:15:23;18.20;1.00
11511;DHT22;5812;48.864;9.190;2022-08-03T04:17:51;18.10;1.00
11511;DHT22;5812;48.864;9.190;2022-08-03T04:20:19;17.90;1.00
11511;DHT22;5812;48.864;9.190;2022-08-03T04:22:48;17.80;1.00
11511;DHT22;5812;48.864;9.190;2022-08-03T04:25:15;17.80;1.00
11511;DHT22;5812;48.864;9.190;2022-08-03T04:27:43;17.70;1.00
11511;DHT22;5812;48.864;9.190;2022-08-03T04:30:11;17.80;1.00
11511;DHT22;5812;48.864;9.190;2022-08-03T04:32:38;17.80;1.00
11511;DHT22;5812;48.864;9.190;2022-08-03T04:35:05;17.90;1.00
11511;DHT22;5812;48.864;9.190;2022-08-03T04:37:48;17.90;1.00
11511;DHT22;5812;48.864;9.190;2022-08-03T04:40:20;18.00;1.00
11511;DHT22;5812;48.864;9.190;2022-08-03T04:42:47;18.00;1.00
11511;DHT22;5812;48.864;9.190;2022-08-03T04:45:15;18.10;1.00
11511;DHT22;5812;48.864;9.190;2022-08-03T04:47:42;18.20;1.00
11511;DHT22;5812;48.864;9.190;2022-08-03T04:50:08;18.20;1.00
11511;DHT22;5812;48.864;9.190;2022-08-03T04:52:34;18.30;1.00
11511;DHT22;5812;48.864;9.190;2022-08-03T04:55:00;18.40;1.00
11511;DHT22;5812;48.864;9.190;2022-08-03T04:57:26;18.60;1.00
11511;DHT22;5812;48.864;9.190;2022-08-03T04:59:52;18.70;1.00
11511;DHT22;5812;48.864;9.190;2022-08-03T05:02:22;18.80;1.00
11511;DHT22;5812;48.864;9.190;2022-08-03T05:04:48;19.00;1.00
11511;DHT22;5812;48.864;9.190;2022-08-03T05:07:15;19.20;1.00
11511;DHT22;5812;48.864;9.190;2022-08-03T05:09:41;19.40;1.00
11511;DHT22;5812;48.864;9.190;2022-08-03T05:12:07;19.40;1.00
11511;DHT22;5812;48.864;9.190;2022-08-03T05:14:34;19.60;1.00
11511;DHT22;5812;48.864;9.190;2022-08-03T05:17:07;19.70;99.90
11511;DHT22;5812;48.864;9.190;2022-08-03T05:19:33;19.60;1.00
11511;DHT22;5812;48.864;9.190;2022-08-03T05:21:59;19.60;1.00
11511;DHT22;5812;48.864;9.190;2022-08-03T05:24:24;19.90;99.90
11511;DHT22;5812;48.864;9.190;2022-08-03T05:26:50;20.10;99.90
11511;DHT22;5812;48.864;9.190;2022-08-03T05:29:16;20.10;99.90
11511;DHT22;5812;48.864;9.190;2022-08-03T05:31:41;20.30;99.90
11511;DHT22;5812;48.864;9.190;2022-08-03T05:34:07;20.50;99.90
11511;DHT22;5812;48.864;9.190;2022-08-03T05:36:33;20.60;99.90
11511;DHT22;5812;48.864;9.190;2022-08-03T05:38:58;20.70;99.90
11511;DHT22;5812;48.864;9.190;2022-08-03T05:41:24;20.70;99.90
11511;DHT22;5812;48.864;9.190;2022-08-03T05:43:51;20.90;99.90
11511;DHT22;5812;48.864;9.190;2022-08-03T05:46:17;20.90;99.90
11511;DHT22;5812;48.864;9.190;2022-08-03T05:48:42;21.10;1.00
11511;DHT22;5812;48.864;9.190;2022-08-03T05:51:08;21.00;1.00
11511;DHT22;5812;48.864;9.190;2022-08-03T05:53:36;21.30;1.00
11511;DHT22;5812;48.864;9.190;2022-08-03T05:56:02;21.50;1.00
11511;DHT22;5812;48.864;9.190;2022-08-03T05:58:28;21.90;1.00
11511;DHT22;5812;48.864;9.190;2022-08-03T06:00:54;22.20;99.90
11511;DHT22;5812;48.864;9.190;2022-08-03T06:03:19;22.40;99.90
11511;DHT22;5812;48.864;9.190;2022-08-03T06:05:46;22.50;99.90
11511;DHT22;5812;48.864;9.190;2022-08-03T06:08:11;22.30;99.90
11511;DHT22;5812;48.864;9.190;2022-08-03T06:10:37;22.30;99.90
11511;DHT22;5812;48.864;9.190;2022-08-03T06:13:03;22.60;99.90
11511;DHT22;5812;48.864;9.190;2022-08-03T06:15:29;22.80;99.90
11511;DHT22;5812;48.864;9.190;2022-08-03T06:17:57;23.30;99.90
11511;DHT22;5812;48.864;9.190;2022-08-03T06:20:23;23.20;99.90
11511;DHT22;5812;48.864;9.190;2022-08-03T06:22:49;23.60;99.90
11511;DHT22;5812;48.864;9.190;2022-08-03T06:25:14;24.30;99.90
11511;DHT22;5812;48.864;9.190;2022-08-03T06:27:41;24.30;99.90
11511;DHT22;5812;48.864;9.190;2022-08-03T06:30:08;24.40;92.40
11511;DHT22;5812;48.864;9.190;2022-08-03T06:32:40;24.10;80.50
11511;DHT22;5812;48.864;9.190;2022-08-03T06:35:07;24.20;67.90
11511;DHT22;5812;48.864;9.190;2022-08-03T06:37:48;24.00;93.20
11511;DHT22;5812;48.864;9.190;2022-08-03T06:40:16;24.80;98.30
11511;DHT22;5812;48.864;9.190;2022-08-03T06:42:43;25.40;68.70
11511;DHT22;5812;48.864;9.190;2022-08-03T06:45:09;25.10;24.40
11511;DHT22;5812;48.864;9.190;2022-08-03T06:47:36;25.40;21.10
11511;DHT22;5812;48.864;9.190;2022-08-03T06:50:02;25.50;41.50
11511;DHT22;5812;48.864;9.190;2022-08-03T06:52:28;26.10;22.70
11511;DHT22;5812;48.864;9.190;2022-08-03T06:54:54;26.40;4.90
11511;DHT22;5812;48.864;9.190;2022-08-03T06:57:20;26.70;1.00
11511;DHT22;5812;48.864;9.190;2022-08-03T06:59:45;26.20;1.00
11511;DHT22;5812;48.864;9.190;2022-08-03T07:02:11;26.10;1.00
11511;DHT22;5812;48.864;9.190;2022-08-03T07:04:37;26.30;1.00
11511;DHT22;5812;48.864;9.190;2022-08-03T07:07:03;26.50;1.00
11511;DHT22;5812;48.864;9.190;2022-08-03T07:09:29;27.00;1.00
11511;DHT22;5812;48.864;9.190;2022-08-03T07:11:54;27.30;1.00
11511;DHT22;5812;48.864;9.190;2022-08-03T07:14:21;27.40;1.00
11511;DHT22;5812;48.864;9.190;2022-08-03T07:16:48;27.40;1.00
11511;DHT22;5812;48.864;9.190;2022-08-03T07:19:13;27.20;1.00
11511;DHT22;5812;48.864;9.190;2022-08-03T07:21:39;27.30;1.00
11511;DHT22;5812;48.864;9.190;2022-08-03T07:24:05;27.40;1.00
11511;DHT22;5812;48.864;9.190;2022-08-03T07:26:30;27.10;1.00
11511;DHT22;5812;48.864;9.190;2022-08-03T07:28:56;27.50;1.00
11511;DHT22;5812;48.864;9.190;2022-08-03T07:31:21;28.10;1.00
11511;DHT22;5812;48.864;9.190;2022-08-03T07:33:47;28.20;1.00
11511;DHT22;5812;48.864;9.190;2022-08-03T07:36:13;28.50;1.00
11511;DHT22;5812;48.864;9.190;2022-08-03T07:38:38;28.20;1.00
11511;DHT22;5812;48.864;9.190;2022-08-03T07:41:04;27.90;1.00
11511;DHT22;5812;48.864;9.190;2022-08-03T07:43:29;28.50;1.00
11511;DHT22;5812;48.864;9.190;2022-08-03T07:45:55;28.60;1.00
11511;DHT22;5812;48.864;9.190;2022-08-03T07:48:21;29.10;1.00
11511;DHT22;5812;48.864;9.190;2022-08-03T07:50:46;29.30;1.00
11511;DHT22;5812;48.864;9.190;2022-08-03T07:53:12;29.80;1.00
11511;DHT22;5812;48.864;9.190;2022-08-03T07:55:38;30.00;1.00
11511;DHT22;5812;48.864;9.190;2022-08-03T07:58:09;29.90;1.00
11511;DHT22;5812;48.864;9.190;2022-08-03T08:00:37;30.30;1.00
11511;DHT22;5812;48.864;9.190;2022-08-03T08:03:03;29.80;1.00
11511;DHT22;5812;48.864;9.190;2022-08-03T08:05:29;30.10;1.00
11511;DHT22;5812;48.864;9.190;2022-08-03T08:07:55;29.90;1.00
11511;DHT22;5812;48.864;9.190;2022-08-03T08:10:21;29.80;1.00
11511;DHT22;5812;48.864;9.190;2022-08-03T08:12:47;30.30;1.00
11511;DHT22;5812;48.864;9.190;2022-08-03T08:15:13;30.90;1.00
11511;DHT22;5812;48.864;9.190;2022-08-03T08:17:51;30.90;1.00
11511;DHT22;5812;48.864;9.190;2022-08-03T08:20:22;31.50;1.00
11511;DHT22;5812;48.864;9.190;2022-08-03T08:22:48;32.00;1.00
11511;DHT22;5812;48.864;9.190;2022-08-03T08:25:14;32.30;1.00
11511;DHT22;5812;48.864;9.190;2022-08-03T08:27:44;31.80;1.00
11511;DHT22;5812;48.864;9.190;2022-08-03T08:30:11;32.20;1.00
11511;DHT22;5812;48.864;9.190;2022-08-03T08:32:37;31.90;1.00
11511;DHT22;5812;48.864;9.190;2022-08-03T08:35:10;31.50;1.00
11511;DHT22;5812;48.864;9.190;2022-08-03T08:37:36;31.20;1.00
11511;DHT22;5812;48.864;9.190;2022-08-03T08:40:04;31.30;1.00
11511;DHT22;5812;48.864;9.190;2022-08-03T08:42:30;31.40;1.00
11511;DHT22;5812;48.864;9.190;2022-08-03T08:44:56;31.70;1.00
11511;DHT22;5812;48.864;9.190;2022-08-03T08:47:28;32.30;1.00
11511;DHT22;5812;48.864;9.190;2022-08-03T08:49:57;32.30;1.00
11511;DHT22;5812;48.864;9.190;2022-08-03T08:52:27;32.50;1.00
11511;DHT22;5812;48.864;9.190;2022-08-03T08:55:01;32.90;1.00
11511;DHT22;5812;48.864;9.190;2022-08-03T08:57:43;33.10;1.00
11511;DHT22;5812;48.864;9.190;2022-08-03T09:00:11;32.80;1.00
11511;DHT22;5812;48.864;9.190;2022-08-03T09:02:39;32.30;1.00
11511;DHT22;5812;48.864;9.190;2022-08-03T09:05:09;32.50;1.00
11511;DHT22;5812;48.864;9.190;2022-08-03T09:07:37;32.50;1.00
11511;DHT22;5812;48.864;9.190;2022-08-03T09:10:03;33.10;1.00
11511;DHT22;5812;48.864;9.190;2022-08-03T09:12:29;33.90;1.00
11511;DHT22;5812;48.864;9.190;2022-08-03T09:14:55;34.20;1.00
11511;DHT22;5812;48.864;9.190;2022-08-03T09:17:20;34.60;1.00
11511;DHT22;5812;48.864;9.190;2022-08-03T09:20:05;34.80;1.00
11511;DHT22;5812;48.864;9.190;2022-08-03T09:22:35;35.20;1.00
11511;DHT22;5812;48.864;9.190;2022-08-03T09:25:15;34.30;1.00
11511;DHT22;5812;48.864;9.190;2022-08-03T09:27:45;33.90;1.00
11511;DHT22;5812;48.864;9.190;2022-08-03T09:30:15;33.90;1.00
11511;DHT22;5812;48.864;9.190;2022-08-03T09:32:42;34.70;1.00
11511;DHT22;5812;48.864;9.190;2022-08-03T09:35:09;34.60;1.00
11511;DHT22;5812;48.864;9.190;2022-08-03T09:37:36;34.10;1.00
11511;DHT22;5812;48.864;9.190;2022-08-03T09:40:02;34.40;1.00
11511;DHT22;5812;48.864;9.190;2022-08-03T09:42:29;33.80;1.00
11511;DHT22;5812;48.864;9.190;2022-08-03T09:44:54;33.70;1.00
11511;DHT22;5812;48.864;9.190;2022-08-03T09:47:35;33.40;1.00
11511;DHT22;5812;48.864;9.190;2022-08-03T09:50:09;33.90;1.00
11511;DHT22;5812;48.864;9.190;2022-08-03T09:52:38;34.00;1.00
11511;DHT22;5812;48.864;9.190;2022-08-03T09:55:09;34.20;1.00
11511;DHT22;5812;48.864;9.190;2022-08-03T09:57:35;34.50;1.00
11511;DHT22;5812;48.864;9.190;2022-08-03T10:00:06;35.40;1.00
11511;DHT22;5812;48.864;9.190;2022-08-03T10:02:35;35.50;1.00
11511;DHT22;5812;48.864;9.190;2022-08-03T10:05:03;35.60;1.00
11511;DHT22;5812;48.864;9.190;2022-08-03T10:07:29;35.60;1.00
11511;DHT22;5812;48.864;9.190;2022-08-03T10:10:00;36.00;1.00
11511;DHT22;5812;48.864;9.190;2022-08-03T10:12:27;36.70;1.00
11511;DHT22;5812;48.864;9.190;2022-08-03T10:14:53;36.20;1.00
11511;DHT22;5812;48.864;9.190;2022-08-03T10:17:20;36.10;1.00
11511;DHT22;5812;48.864;9.190;2022-08-03T10:19:46;35.60;1.00
11511;DHT22;5812;48.864;9.190;2022-08-03T10:22:15;35.70;1.00
11511;DHT22;5812;48.864;9.190;2022-08-03T10:24:55;36.10;1.00
11511;DHT22;5812;48.864;9.190;2022-08-03T10:27:23;34.70;1.00
11511;DHT22;5812;48.864;9.190;2022-08-03T10:29:52;34.30;1.00
11511;DHT22;5812;48.864;9.190;2022-08-03T10:32:27;34.20;1.00
11511;DHT22;5812;48.864;9.190;2022-08-03T10:35:03;34.70;1.00
11511;DHT22;5812;48.864;9.190;2022-08-03T10:37:32;34.80;1.00
11511;DHT22;5812;48.864;9.190;2022-08-03T10:40:00;35.40;1.00
11511;DHT22;5812;48.864;9.190;2022-08-03T10:42:27;35.90;1.00
11511;DHT22;5812;48.864;9.190;2022-08-03T10:45:05;36.30;1.00
11511;DHT22;5812;48.864;9.190;2022-08-03T13:19:25;49.20;1.00
11511;DHT22;5812;48.864;9.190;2022-08-03T13:21:50;49.70;1.00
11511;DHT22;5812;48.864;9.190;2022-08-03T13:24:16;50.80;1.00
11511;DHT22;5812;48.864;9.190;2022-08-03T13:26:42;51.10;1.00
11511;DHT22;5812;48.864;9.190;2022-08-03T13:29:08;49.70;1.00
11511;DHT22;5812;48.864;9.190;2022-08-03T13:31:33;50.70;1.00
11511;DHT22;5812;48.864;9.190;2022-08-03T13:33:59;49.70;1.00
11511;DHT22;5812;48.864;9.190;2022-08-03T13:36:24;49.20;1.00
11511;DHT22;5812;48.864;9.190;2022-08-03T13:38:50;49.60;1.00
11511;DHT22;5812;48.864;9.190;2022-08-03T13:41:16;49.60;1.00
11511;DHT22;5812;48.864;9.190;2022-08-03T13:43:41;49.30;1.00
11511;DHT22;5812;48.864;9.190;2022-08-03T13:46:07;51.10;1.00
11511;DHT22;5812;48.864;9.190;2022-08-03T13:48:33;51.90;1.00
11511;DHT22;5812;48.864;9.190;2022-08-03T13:50:58;51.90;1.00
11511;DHT22;5812;48.864;9.190;2022-08-03T13:53:24;53.00;1.00
11511;DHT22;5812;48.864;9.190;2022-08-03T13:55:49;53.50;1.00
11511;DHT22;5812;48.864;9.190;2022-08-03T13:58:15;53.00;1.00
11511;DHT22;5812;48.864;9.190;2022-08-03T14:00:41;52.50;1.00
11511;DHT22;5812;48.864;9.190;2022-08-03T14:03:06;51.20;1.00
11511;DHT22;5812;48.864;9.190;2022-08-03T14:05:33;51.70;1.00
11511;DHT22;5812;48.864;9.190;2022-08-03T14:08:00;52.20;1.00
11511;DHT22;5812;48.864;9.190;2022-08-03T14:10:26;51.30;1.00
11511;DHT22;5812;48.864;9.190;2022-08-03T14:12:52;51.50;1.00
11511;DHT22;5812;48.864;9.190;2022-08-03T14:15:18;51.60;1.00
11511;DHT22;5812;48.864;9.190;2022-08-03T14:17:43;52.10;1.00
11511;DHT22;5812;48.864;9.190;2022-08-03T14:20:09;51.40;1.00
11511;DHT22;5812;48.864;9.190;2022-08-03T14:22:37;49.50;1.00
11511;DHT22;5812;48.864;9.190;2022-08-03T14:25:02;48.60;1.00
11511;DHT22;5812;48.864;9.190;2022-08-03T14:27:28;48.60;1.00
11511;DHT22;5812;48.864;9.190;2022-08-03T14:29:54;48.00;1.00
11511;DHT22;5812;48.864;9.190;2022-08-03T14:32:24;45.20;1.00
11511;DHT22;5812;48.864;9.190;2022-08-03T14:34:50;44.30;1.00
11511;DHT22;5812;48.864;9.190;2022-08-03T14:37:15;43.20;1.00
11511;DHT22;5812;48.864;9.190;2022-08-03T14:39:41;41.70;1.00
11511;DHT22;5812;48.864;9.190;2022-08-03T14:42:07;41.20;1.00
11511;DHT22;5812;48.864;9.190;2022-08-03T14:44:32;39.90;1.00
11511;DHT22;5812;48.864;9.190;2022-08-03T14:46:58;39.40;1.00
11511;DHT22;5812;48.864;9.190;2022-08-03T14:49:23;39.00;1.00
11511;DHT22;5812;48.864;9.190;2022-08-03T14:51:49;38.60;1.00
11511;DHT22;5812;48.864;9.190;2022-08-03T14:54:15;38.30;1.00
11511;DHT22;5812;48.864;9.190;2022-08-03T14:56:40;37.80;1.00
11511;DHT22;5812;48.864;9.190;2022-08-03T14:59:06;37.00;1.00
11511;DHT22;5812;48.864;9.190;2022-08-03T15:01:31;36.30;1.00
11511;DHT22;5812;48.864;9.190;2022-08-03T15:03:57;35.70;1.00
11511;DHT22;5812;48.864;9.190;2022-08-03T15:06:23;35.20;1.00
11511;DHT22;5812;48.864;9.190;2022-08-03T15:08:48;34.90;1.00
11511;DHT22;5812;48.864;9.190;2022-08-03T15:11:14;34.60;1.00
11511;DHT22;5812;48.864;9.190;2022-08-03T15:13:40;34.40;1.00
11511;DHT22;5812;48.864;9.190;2022-08-03T15:16:05;34.20;1.00
11511;DHT22;5812;48.864;9.190;2022-08-03T15:18:33;34.10;1.00
11511;DHT22;5812;48.864;9.190;2022-08-03T15:20:58;34.10;1.00
11511;DHT22;5812;48.864;9.190;2022-08-03T15:23:24;34.00;1.00
11511;DHT22;5812;48.864;9.190;2022-08-03T15:25:51;34.20;1.00
11511;DHT22;5812;48.864;9.190;2022-08-03T15:28:16;34.40;1.00
11511;DHT22;5812;48.864;9.190;2022-08-03T15:30:42;34.20;1.00
11511;DHT22;5812;48.864;9.190;2022-08-03T15:33:08;34.20;1.00
11511;DHT22;5812;48.864;9.190;2022-08-03T15:35:34;34.20;1.00
11511;DHT22;5812;48.864;9.190;2022-08-03T15:38:00;34.20;1.00
11511;DHT22;5812;48.864;9.190;2022-08-03T15:40:25;34.10;1.00
11511;DHT22;5812;48.864;9.190;2022-08-03T15:42:51;34.40;1.00
11511;DHT22;5812;48.864;9.190;2022-08-03T15:45:16;34.90;1.00
11511;DHT22;5812;48.864;9.190;2022-08-03T15:47:42;35.00;1.00
11511;DHT22;5812;48.864;9.190;2022-08-03T15:50:08;34.60;1.00
11511;DHT22;5812;48.864;9.190;2022-08-03T15:52:33;34.30;1.00
11511;DHT22;5812;48.864;9.190;2022-08-03T15:54:59;34.10;1.00
11511;DHT22;5812;48.864;9.190;2022-08-03T15:57:24;34.00;1.00
11511;DHT22;5812;48.864;9.190;2022-08-03T15:59:50;33.90;1.00
11511;DHT22;5812;48.864;9.190;2022-08-03T16:02:16;34.10;1.00
11511;DHT22;5812;48.864;9.190;2022-08-03T16:04:42;33.90;1.00
11511;DHT22;5812;48.864;9.190;2022-08-03T16:07:07;34.00;1.00
11511;DHT22;5812;48.864;9.190;2022-08-03T16:09:33;34.10;1.00
11511;DHT22;5812;48.864;9.190;2022-08-03T16:11:58;34.80;1.00
11511;DHT22;5812;48.864;9.190;2022-08-03T16:14:24;36.80;1.00
11511;DHT22;5812;48.864;9.190;2022-08-03T16:16:50;39.30;1.00
11511;DHT22;5812;48.864;9.190;2022-08-03T16:19:15;41.10;1.00
11511;DHT22;5812;48.864;9.190;2022-08-03T16:21:41;42.70;1.00
11511;DHT22;5812;48.864;9.190;2022-08-03T16:24:06;43.90;1.00
11511;DHT22;5812;48.864;9.190;2022-08-03T16:26:32;45.20;1.00
11511;DHT22;5812;48.864;9.190;2022-08-03T16:28:58;46.80;1.00
11511;DHT22;5812;48.864;9.190;2022-08-03T16:31:23;47.30;1.00
11511;DHT22;5812;48.864;9.190;2022-08-03T16:33:52;48.40;1.00
11511;DHT22;5812;48.864;9.190;2022-08-03T16:36:18;48.90;1.00
11511;DHT22;5812;48.864;9.190;2022-08-03T16:38:44;50.00;1.00
11511;DHT22;5812;48.864;9.190;2022-08-03T16:41:09;50.70;1.00
11511;DHT22;5812;48.864;9.190;2022-08-03T16:43:35;51.10;1.00
11511;DHT22;5812;48.864;9.190;2022-08-03T16:46:00;50.90;1.00
11511;DHT22;5812;48.864;9.190;2022-08-03T16:48:27;51.50;1.00
11511;DHT22;5812;48.864;9.190;2022-08-03T16:50:52;51.30;1.00
11511;DHT22;5812;48.864;9.190;2022-08-03T16:53:19;51.00;1.00
11511;DHT22;5812;48.864;9.190;2022-08-03T16:55:44;51.10;1.00
11511;DHT22;5812;48.864;9.190;2022-08-03T16:58:12;50.50;1.00
11511;DHT22;5812;48.864;9.190;2022-08-03T17:00:39;49.90;1.00
11511;DHT22;5812;48.864;9.190;2022-08-03T17:03:06;49.50;1.00
11511;DHT22;5812;48.864;9.190;2022-08-03T17:05:33;49.50;1.00
11511;DHT22;5812;48.864;9.190;2022-08-03T17:07:59;49.90;1.00
11511;DHT22;5812;48.864;9.190;2022-08-03T17:10:26;49.30;1.00
11511;DHT22;5812;48.864;9.190;2022-08-03T17:12:51;47.90;1.00
11511;DHT22;5812;48.864;9.190;2022-08-03T17:15:17;45.80;1.00
11511;DHT22;5812;48.864;9.190;2022-08-03T17:18:03;43.40;1.00
11511;DHT22;5812;48.864;9.190;2022-08-03T17:20:31;41.80;1.00
11511;DHT22;5812;48.864;9.190;2022-08-03T17:23:09;40.60;1.00
11511;DHT22;5812;48.864;9.190;2022-08-03T17:25:40;39.20;1.00
11511;DHT22;5812;48.864;9.190;2022-08-03T17:28:06;38.10;1.00
11511;DHT22;5812;48.864;9.190;2022-08-03T17:30:34;37.20;1.00
11511;DHT22;5812;48.864;9.190;2022-08-03T17:33:19;36.50;1.00
11511;DHT22;5812;48.864;9.190;2022-08-03T17:35:45;35.60;1.00
11511;DHT22;5812;48.864;9.190;2022-08-03T17:38:12;35.10;1.00
11511;DHT22;5812;48.864;9.190;2022-08-03T17:40:39;34.60;1.00
11511;DHT22;5812;48.864;9.190;2022-08-03T17:43:05;34.00;1.00
11511;DHT22;5812;48.864;9.190;2022-08-03T17:45:31;33.70;1.00
11511;DHT22;5812;48.864;9.190;2022-08-03T17:47:57;33.50;1.00
11511;DHT22;5812;48.864;9.190;2022-08-03T17:50:22;33.20;1.00
11511;DHT22;5812;48.864;9.190;2022-08-03T17:52:49;33.00;1.00
11511;DHT22;5812;48.864;9.190;2022-08-03T17:55:19;32.70;1.00
11511;DHT22;5812;48.864;9.190;2022-08-03T17:58:01;32.60;1.00
11511;DHT22;5812;48.864;9.190;2022-08-03T18:00:30;32.40;1.00
11511;DHT22;5812;48.864;9.190;2022-08-03T18:08:42;31.90;1.00
11511;DHT22;5812;48.864;9.190;2022-08-03T18:11:10;31.80;1.00
11511;DHT22;5812;48.864;9.190;2022-08-03T18:16:51;31.60;1.00
11511;DHT22;5812;48.864;9.190;2022-08-03T18:19:21;31.40;1.00
11511;DHT22;5812;48.864;9.190;2022-08-03T18:21:49;31.20;1.00
11511;DHT22;5812;48.864;9.190;2022-08-03T18:24:19;31.10;1.00
11511;DHT22;5812;48.864;9.190;2022-08-03T18:26:45;31.00;1.00
11511;DHT22;5812;48.864;9.190;2022-08-03T18:29:12;30.90;1.00
11511;DHT22;5812;48.864;9.190;2022-08-03T18:31:39;30.70;1.00
11511;DHT22;5812;48.864;9.190;2022-08-03T18:34:05;30.60;1.00
11511;DHT22;5812;48.864;9.190;2022-08-03T18:36:32;30.40;1.00
11511;DHT22;5812;48.864;9.190;2022-08-03T18:39:02;30.30;1.00
11511;DHT22;5812;48.864;9.190;2022-08-03T18:41:29;30.30;1.00
11511;DHT22;5812;48.864;9.190;2022-08-03T18:43:55;30.20;1.00
11511;DHT22;5812;48.864;9.190;2022-08-03T18:49:42;30.00;1.00
11511;DHT22;5812;48.864;9.190;2022-08-03T18:52:21;29.80;1.00
11511;DHT22;5812;48.864;9.190;2022-08-03T18:57:32;29.40;1.00
11511;DHT22;5812;48.864;9.190;2022-08-03T19:00:05;29.20;1.00
11511;DHT22;5812;48.864;9.190;2022-08-03T19:05:08;28.70;1.00